createdAt,value
2023-11-19T00:00:31.213Z,1.80
2023-11-19T00:03:01.424Z,1.77
2023-11-19T00:05:30.267Z,1.77
2023-11-19T00:07:58.889Z,1.65
2023-11-19T00:10:27.700Z,2.05
2023-11-19T00:12:58.106Z,1.73
2023-11-19T00:15:26.858Z,1.70
2023-11-19T00:17:56.588Z,1.70
2023-11-19T00:20:27.953Z,1.88
2023-11-19T00:22:56.573Z,1.83
2023-11-19T00:25:26.483Z,1.90
2023-11-19T00:27:57.406Z,2.00
2023-11-19T00:30:26.089Z,1.88
2023-11-19T00:32:56.447Z,1.77
2023-11-19T00:35:25.289Z,2.50
2023-11-19T00:37:55.574Z,1.80
2023-11-19T00:40:25.001Z,1.90
2023-11-19T00:42:54.346Z,2.30
2023-11-19T00:45:24.630Z,2.10
2023-11-19T00:47:53.571Z,1.88
2023-11-19T00:50:24.108Z,1.98
2023-11-19T00:52:53.337Z,1.90
2023-11-19T00:55:23.564Z,2.08
2023-11-19T00:57:52.330Z,2.20
2023-11-19T01:00:22.209Z,2.08
2023-11-19T01:02:52.725Z,1.75
2023-11-19T01:05:24.041Z,1.77
2023-11-19T01:07:55.376Z,1.92
2023-11-19T01:10:27.025Z,1.88
2023-11-19T01:12:56.230Z,1.70
2023-11-19T01:15:24.969Z,1.70
2023-11-19T01:17:54.474Z,2.00
2023-11-19T01:20:23.706Z,2.08
2023-11-19T01:22:52.902Z,1.95
2023-11-19T01:25:21.689Z,1.83
2023-11-19T01:27:52.185Z,2.00
2023-11-19T01:30:21.044Z,2.13
2023-11-19T01:32:51.925Z,2.20
2023-11-19T01:35:22.044Z,3.83
2023-11-19T01:37:52.704Z,5.47
2023-11-19T01:40:23.545Z,5.25
2023-11-19T01:42:54.281Z,3.25
2023-11-19T01:45:32.157Z,2.20
2023-11-19T01:48:02.423Z,2.22
2023-11-19T01:50:31.481Z,2.03
2023-11-19T01:53:01.822Z,2.13
2023-11-19T01:55:31.098Z,2.40
2023-11-19T01:58:03.138Z,2.20
2023-11-19T02:00:31.866Z,2.22
2023-11-19T02:03:00.870Z,2.50
2023-11-19T02:05:29.691Z,2.35
2023-11-19T02:07:58.295Z,2.53
2023-11-19T02:10:27.390Z,2.08
2023-11-19T02:13:06.201Z,1.90
2023-11-19T02:15:37.463Z,2.10
2023-11-19T02:18:25.342Z,2.00
2023-11-19T02:20:54.104Z,2.15
2023-11-19T02:23:23.117Z,2.33
2023-11-19T02:25:58.736Z,2.30
2023-11-19T02:28:29.238Z,2.30
2023-11-19T02:30:58.036Z,2.17
2023-11-19T02:33:27.024Z,2.17
2023-11-19T02:35:56.068Z,2.42
2023-11-19T02:38:24.864Z,2.15
2023-11-19T02:40:53.518Z,2.75
2023-11-19T02:43:22.692Z,2.58
2023-11-19T02:45:55.166Z,2.58
2023-11-19T02:48:24.210Z,2.53
2023-11-19T02:50:53.721Z,2.40
2023-11-19T02:53:23.609Z,2.80
2023-11-19T02:55:53.303Z,2.60
2023-11-19T02:58:24.937Z,2.92
2023-11-19T03:00:58.820Z,2.67
2023-11-19T03:03:31.886Z,2.42
2023-11-19T03:06:01.441Z,2.72
2023-11-19T03:08:29.063Z,2.90
2023-11-19T03:10:57.786Z,2.58
2023-11-19T03:13:26.558Z,2.60
2023-11-19T03:15:56.827Z,2.67
2023-11-19T03:18:25.509Z,2.30
2023-11-19T03:20:54.486Z,3.20
2023-11-19T03:23:24.032Z,2.42
2023-11-19T03:25:52.906Z,2.58
2023-11-19T03:28:21.634Z,2.65
2023-11-19T03:30:50.551Z,2.75
2023-11-19T03:33:21.182Z,2.53
2023-11-19T03:35:50.232Z,2.80
2023-11-19T03:38:18.833Z,2.22
2023-11-19T03:40:47.545Z,2.13
2023-11-19T03:43:17.281Z,2.80
2023-11-19T03:45:47.508Z,2.60
2023-11-19T03:48:17.819Z,2.75
2023-11-19T03:50:47.841Z,2.80
2023-11-19T03:53:16.473Z,2.53
2023-11-19T03:55:45.388Z,2.70
2023-11-19T03:58:14.942Z,2.33
2023-11-19T04:00:43.629Z,2.72
2023-11-19T04:03:12.266Z,2.92
2023-11-19T04:05:40.869Z,2.25
2023-11-19T04:08:10.989Z,2.60
2023-11-19T04:10:39.853Z,2.53
2023-11-19T04:13:08.563Z,2.65
2023-11-19T04:15:37.313Z,2.90
2023-11-19T04:18:06.162Z,2.70
2023-11-19T04:20:34.969Z,2.78
2023-11-19T04:23:03.592Z,2.40
2023-11-19T04:25:33.676Z,2.30
2023-11-19T04:28:03.381Z,2.42
2023-11-19T04:30:32.877Z,2.63
2023-11-19T04:33:01.742Z,2.83
2023-11-19T04:35:30.768Z,2.38
2023-11-19T04:37:59.503Z,2.40
2023-11-19T04:40:28.283Z,2.35
2023-11-19T04:42:58.797Z,2.40
2023-11-19T04:45:28.227Z,2.70
2023-11-19T04:47:57.111Z,2.55
2023-11-19T04:50:28.268Z,2.70
2023-11-19T04:52:59.850Z,3.20
2023-11-19T04:55:30.266Z,3.08
2023-11-19T04:58:00.544Z,2.88
2023-11-19T05:00:29.175Z,3.28
2023-11-19T05:02:57.993Z,2.78
2023-11-19T05:05:26.728Z,3.17
2023-11-19T05:07:55.970Z,2.90
2023-11-19T05:10:26.095Z,3.17
2023-11-19T05:12:57.158Z,2.58
2023-11-19T05:15:27.255Z,3.10
2023-11-19T05:17:56.179Z,3.28
2023-11-19T05:20:24.973Z,3.05
2023-11-19T05:22:54.471Z,3.05
2023-11-19T05:25:23.201Z,2.53
2023-11-19T05:27:51.893Z,2.25
2023-11-19T05:30:20.562Z,2.60
2023-11-19T05:32:50.849Z,2.13
2023-11-19T05:35:19.896Z,1.90
2023-11-19T05:37:48.521Z,2.55
2023-11-19T05:40:17.308Z,2.33
2023-11-19T05:42:46.830Z,2.33
2023-11-19T05:45:16.727Z,2.17
2023-11-19T05:47:45.747Z,2.30
2023-11-19T05:50:15.875Z,2.50
2023-11-19T05:52:44.553Z,2.20
2023-11-19T05:55:14.010Z,2.33
2023-11-19T06:00:16.634Z,2.20
2023-11-19T06:02:45.472Z,2.15
2023-11-19T06:05:15.034Z,2.25
2023-11-19T06:07:45.101Z,2.10
2023-11-19T06:10:15.347Z,2.38
2023-11-19T06:12:44.409Z,2.60
2023-11-19T06:15:13.295Z,2.42
2023-11-19T06:17:42.472Z,3.20
2023-11-19T06:20:13.094Z,2.92
2023-11-19T06:22:43.335Z,2.83
2023-11-19T06:25:15.693Z,3.20
2023-11-19T06:27:44.642Z,2.90
2023-11-19T06:30:13.978Z,3.08
2023-11-19T06:32:43.037Z,2.75
2023-11-19T06:35:11.928Z,3.35
2023-11-19T06:37:41.896Z,2.50
2023-11-19T06:40:11.470Z,2.45
2023-11-19T06:42:42.304Z,2.72
2023-11-19T06:45:11.761Z,2.65
2023-11-19T06:47:40.759Z,2.90
2023-11-19T06:50:10.521Z,3.00
2023-11-19T06:52:39.556Z,3.00
2023-11-19T06:55:09.388Z,3.10
2023-11-19T06:57:38.513Z,2.97
2023-11-19T07:00:10.591Z,3.08
2023-11-19T07:02:40.544Z,3.13
2023-11-19T07:05:09.725Z,3.08
2023-11-19T07:07:39.048Z,3.08
2023-11-19T07:10:10.685Z,2.67
2023-11-19T07:12:39.706Z,2.50
2023-11-19T07:15:10.936Z,2.90
2023-11-19T07:17:41.342Z,3.03
2023-11-19T07:20:10.578Z,2.95
2023-11-19T07:22:39.774Z,3.10
2023-11-19T07:25:09.583Z,3.25
2023-11-19T07:27:38.263Z,2.92
2023-11-19T07:30:08.291Z,3.25
2023-11-19T07:32:40.303Z,3.00
2023-11-19T07:35:10.219Z,3.17
2023-11-19T07:37:38.874Z,3.35
2023-11-19T07:40:08.150Z,2.90
2023-11-19T07:42:39.133Z,3.25
2023-11-19T07:45:09.215Z,3.80
2023-11-19T07:47:39.782Z,3.70
2023-11-19T07:50:08.904Z,3.60
2023-11-19T07:52:37.637Z,3.17
2023-11-19T07:55:06.553Z,3.85
2023-11-19T07:57:35.330Z,3.83
2023-11-19T08:00:04.268Z,3.47
2023-11-19T08:02:43.374Z,3.20
2023-11-19T08:05:12.863Z,3.55
2023-11-19T08:07:41.543Z,3.47
2023-11-19T08:10:12.143Z,3.50
2023-11-19T08:12:40.833Z,3.25
2023-11-19T08:15:10.348Z,3.17
2023-11-19T08:17:39.075Z,3.42
2023-11-19T08:20:11.581Z,3.58
2023-11-19T08:22:40.488Z,4.30
2023-11-19T08:25:09.390Z,4.78
2023-11-19T08:27:38.177Z,4.40
2023-11-19T08:30:07.491Z,4.15
2023-11-19T08:32:37.821Z,3.80
2023-11-19T08:35:07.119Z,4.75
2023-11-19T08:37:37.964Z,4.30
2023-11-19T08:40:08.293Z,4.10
2023-11-19T08:42:37.538Z,5.82
2023-11-19T08:45:07.552Z,11.50
2023-11-19T08:47:36.441Z,7.80
2023-11-19T08:50:05.427Z,7.80
2023-11-19T08:52:35.543Z,8.07
2023-11-19T08:55:06.480Z,7.70
2023-11-19T08:57:35.381Z,6.45
2023-11-19T09:00:05.566Z,5.10
2023-11-19T09:02:35.307Z,3.80
2023-11-19T09:05:04.533Z,3.75
2023-11-19T09:07:33.198Z,4.32
2023-11-19T09:10:01.919Z,3.58
2023-11-19T09:12:32.010Z,3.85
2023-11-19T09:15:00.922Z,4.10
2023-11-19T09:17:29.694Z,4.20
2023-11-19T09:19:58.497Z,3.70
2023-11-19T09:22:27.110Z,3.55
2023-11-19T09:24:56.383Z,3.42
2023-11-19T09:27:25.092Z,3.05
2023-11-19T09:29:59.764Z,3.60
2023-11-19T09:32:28.946Z,3.65
2023-11-19T09:34:58.035Z,3.50
2023-11-19T09:37:26.700Z,3.63
2023-11-19T09:39:57.843Z,3.67
2023-11-19T09:42:28.074Z,3.50
2023-11-19T09:44:59.472Z,3.45
2023-11-19T09:47:28.738Z,3.55
2023-11-19T09:49:59.395Z,4.03
2023-11-19T09:52:28.355Z,3.20
2023-11-19T09:54:57.045Z,3.40
2023-11-19T09:57:25.816Z,3.30
2023-11-19T09:59:55.335Z,3.15
2023-11-19T10:02:26.025Z,3.60
2023-11-19T10:04:55.856Z,2.88
2023-11-19T10:07:27.123Z,3.72
2023-11-19T10:09:56.004Z,3.22
2023-11-19T10:12:24.773Z,3.03
2023-11-19T10:14:53.758Z,2.95
2023-11-19T10:17:22.780Z,2.88
2023-11-19T10:19:52.782Z,3.17
2023-11-19T10:22:21.388Z,2.90
2023-11-19T10:24:56.287Z,3.17
2023-11-19T10:27:27.644Z,2.75
2023-11-19T10:29:56.402Z,2.90
2023-11-19T10:32:27.497Z,2.85
2023-11-19T10:35:08.702Z,2.63
2023-11-19T10:37:39.029Z,2.63
2023-11-19T10:40:11.414Z,2.95
2023-11-19T10:42:41.588Z,2.70
2023-11-19T10:45:24.836Z,2.17
2023-11-19T10:47:54.699Z,2.30
2023-11-19T10:50:26.343Z,2.38
2023-11-19T10:52:55.765Z,2.40
2023-11-19T10:55:29.664Z,2.67
2023-11-19T10:58:01.351Z,2.08
2023-11-19T11:00:33.031Z,1.88
2023-11-19T11:03:04.353Z,2.00
2023-11-19T11:05:36.351Z,3.40
2023-11-19T11:08:07.363Z,2.78
2023-11-19T11:10:38.237Z,1.98
2023-11-19T11:13:08.403Z,2.38
2023-11-19T11:15:37.334Z,2.35
2023-11-19T11:18:06.775Z,2.83
2023-11-19T11:20:37.055Z,2.60
2023-11-19T11:23:12.806Z,2.72
2023-11-19T11:25:49.751Z,2.42
2023-11-19T11:28:24.568Z,2.42
2023-11-19T11:31:00.942Z,2.47
2023-11-19T11:33:38.175Z,2.35
2023-11-19T11:36:15.042Z,2.38
2023-11-19T11:38:43.929Z,2.08
2023-11-19T11:41:20.193Z,2.28
2023-11-19T11:43:50.735Z,2.25
2023-11-19T11:46:38.883Z,2.10
2023-11-19T11:49:08.778Z,2.40
2023-11-19T11:52:01.754Z,2.60
2023-11-19T11:54:33.600Z,2.25
2023-11-19T11:57:12.954Z,2.20
2023-11-19T11:59:49.153Z,2.20
2023-11-19T12:02:18.521Z,2.00
2023-11-19T12:04:50.466Z,2.00
2023-11-19T12:07:20.724Z,2.20
2023-11-19T12:09:57.020Z,2.20
2023-11-19T12:12:26.652Z,2.10
2023-11-19T12:15:07.002Z,2.00
2023-11-19T12:17:59.644Z,2.38
2023-11-19T12:20:35.070Z,2.17
2023-11-19T12:23:08.991Z,2.60
2023-11-19T12:25:39.321Z,2.80
2023-11-19T12:28:08.635Z,2.50
2023-11-19T12:30:37.682Z,2.75
2023-11-19T12:33:11.546Z,3.30
2023-11-19T12:35:41.864Z,4.55
2023-11-19T12:38:10.503Z,4.40
2023-11-19T12:40:40.499Z,3.05
2023-11-19T12:43:09.648Z,2.90
2023-11-19T12:45:40.628Z,3.22
2023-11-19T12:48:10.753Z,3.22
2023-11-19T12:50:54.062Z,4.72
2023-11-19T12:53:22.808Z,3.83
2023-11-19T12:55:53.400Z,2.83
2023-11-19T12:58:31.664Z,2.75
2023-11-19T13:01:04.296Z,2.92
2023-11-19T13:03:33.819Z,2.70
2023-11-19T13:06:06.505Z,2.70
2023-11-19T13:08:42.569Z,3.05
2023-11-19T13:11:13.187Z,3.03
2023-11-19T13:13:56.528Z,2.65
2023-11-19T13:16:25.482Z,2.90
2023-11-19T13:18:54.282Z,3.05
2023-11-19T13:21:23.010Z,4.15
2023-11-19T13:23:51.710Z,3.05
2023-11-19T13:26:21.789Z,3.60
2023-11-19T13:28:50.494Z,3.03
2023-11-19T13:31:20.817Z,3.33
2023-11-19T13:33:50.084Z,3.30
2023-11-19T13:36:18.743Z,3.10
2023-11-19T13:38:48.162Z,2.75
2023-11-19T13:41:16.991Z,3.20
2023-11-19T13:43:47.336Z,3.55
2023-11-19T13:46:16.817Z,2.97
2023-11-19T13:48:45.969Z,2.83
2023-11-19T13:51:14.673Z,2.72
2023-11-19T13:56:16.007Z,3.30
2023-11-19T13:58:44.690Z,3.17
2023-11-19T14:01:15.845Z,2.95
2023-11-19T14:03:44.668Z,3.42
2023-11-19T14:06:13.872Z,3.97
2023-11-19T14:08:42.595Z,3.38
2023-11-19T14:11:12.819Z,3.13
2023-11-19T14:13:41.768Z,2.78
2023-11-19T14:16:11.971Z,4.18
2023-11-19T14:18:42.259Z,3.40
2023-11-19T14:21:11.055Z,3.05
2023-11-19T14:23:39.742Z,3.70
2023-11-19T14:26:08.589Z,3.45
2023-11-19T14:28:55.443Z,3.78
2023-11-19T14:31:25.095Z,3.30
2023-11-19T14:33:57.581Z,3.47
2023-11-19T14:36:26.455Z,3.72
2023-11-19T14:38:55.068Z,3.53
2023-11-19T14:41:23.779Z,4.28
2023-11-19T14:43:53.619Z,3.92
2023-11-19T14:46:23.199Z,4.13
2023-11-19T14:48:52.895Z,3.50
2023-11-19T14:51:23.380Z,3.88
2023-11-19T14:53:52.371Z,3.70
2023-11-19T14:56:20.993Z,3.85
2023-11-19T14:58:51.910Z,3.58
2023-11-19T15:01:20.664Z,3.60
2023-11-19T15:06:25.637Z,3.35
2023-11-19T15:08:54.392Z,3.63
2023-11-19T15:11:23.659Z,2.92
2023-11-19T15:13:52.832Z,2.90
2023-11-19T15:16:32.216Z,3.30
2023-11-19T15:19:01.637Z,3.53
2023-11-19T15:21:31.668Z,3.80
2023-11-19T15:24:00.637Z,4.00
2023-11-19T15:26:29.295Z,3.42
2023-11-19T15:28:59.576Z,2.83
2023-11-19T15:31:29.924Z,2.80
2023-11-19T15:33:59.168Z,2.40
2023-11-19T15:36:27.780Z,2.58
2023-11-19T15:38:57.862Z,2.50
2023-11-19T15:41:26.522Z,3.10
2023-11-19T15:43:55.808Z,2.55
2023-11-19T15:46:25.241Z,2.45
2023-11-19T15:48:54.145Z,2.88
2023-11-19T15:51:22.757Z,2.45
2023-11-19T15:53:51.407Z,3.17
2023-11-19T15:56:21.587Z,2.90
2023-11-19T15:58:51.187Z,2.85
2023-11-19T16:01:20.492Z,2.67
2023-11-19T16:03:52.530Z,2.72
2023-11-19T16:06:22.008Z,2.63
2023-11-19T16:08:51.505Z,2.88
2023-11-19T16:11:22.788Z,3.13
2023-11-19T16:13:51.938Z,2.60
2023-11-19T16:16:20.972Z,2.90
2023-11-19T16:18:49.661Z,2.97
2023-11-19T16:21:19.154Z,2.75
2023-11-19T16:23:47.767Z,2.65
2023-11-19T16:26:16.822Z,2.40
2023-11-19T16:28:46.809Z,2.80
2023-11-19T16:31:15.709Z,2.75
2023-11-19T16:33:45.115Z,2.88
2023-11-19T16:36:15.413Z,2.72
2023-11-19T16:38:44.216Z,3.10
2023-11-19T16:41:14.861Z,3.47
2023-11-19T16:43:44.490Z,3.55
2023-11-19T16:46:14.967Z,3.20
2023-11-19T16:48:43.908Z,3.45
2023-11-19T16:51:15.049Z,3.35
2023-11-19T16:53:48.426Z,3.30
2023-11-19T16:56:17.881Z,3.47
2023-11-19T16:58:46.784Z,3.13
2023-11-19T17:01:17.234Z,3.17
2023-11-19T17:03:46.391Z,2.85
2023-11-19T17:06:15.835Z,3.35
2023-11-19T17:08:45.113Z,3.13
2023-11-19T17:11:13.990Z,2.90
2023-11-19T17:13:42.627Z,3.28
2023-11-19T17:16:12.028Z,3.28
2023-11-19T17:18:42.764Z,3.42
2023-11-19T17:21:11.494Z,2.97
2023-11-19T17:23:40.335Z,3.42
2023-11-19T17:26:09.262Z,2.97
2023-11-19T17:28:38.533Z,3.28
2023-11-19T17:31:07.826Z,3.20
2023-11-19T17:33:37.050Z,3.72
2023-11-19T17:36:08.407Z,3.30
2023-11-19T17:38:37.085Z,3.30
2023-11-19T17:41:05.983Z,3.20
2023-11-19T17:43:34.778Z,3.40
2023-11-19T17:46:07.655Z,3.67
2023-11-19T17:48:36.693Z,3.80
2023-11-19T17:51:07.905Z,5.15
2023-11-19T17:53:38.410Z,4.05
2023-11-19T17:56:07.901Z,3.88
2023-11-19T17:58:37.929Z,4.43
2023-11-19T18:01:07.074Z,4.22
2023-11-19T18:03:36.278Z,4.70
2023-11-19T18:06:06.328Z,4.38
2023-11-19T18:08:39.211Z,4.55
2023-11-19T18:11:11.277Z,3.92
2023-11-19T18:13:39.992Z,5.03
2023-11-19T18:16:08.893Z,4.10
2023-11-19T18:18:38.412Z,4.10
2023-11-19T18:21:08.324Z,5.10
2023-11-19T18:23:38.807Z,3.72
2023-11-19T18:26:08.853Z,4.43
2023-11-19T18:28:37.662Z,4.35
2023-11-19T18:31:08.867Z,4.75
2023-11-19T18:33:38.198Z,4.15
2023-11-19T18:36:08.000Z,3.13
2023-11-19T18:41:14.022Z,3.20
2023-11-19T18:43:43.137Z,3.38
2023-11-19T18:46:12.404Z,3.22
2023-11-19T18:48:41.665Z,3.60
2023-11-19T18:51:15.030Z,3.63
2023-11-19T18:53:45.361Z,4.03
2023-11-19T18:56:14.564Z,4.00
2023-11-19T18:58:43.743Z,3.53
2023-11-19T19:01:14.989Z,3.95
2023-11-19T19:03:44.857Z,4.60
2023-11-19T19:06:14.236Z,3.72
2023-11-19T19:08:43.406Z,3.78
2023-11-19T19:11:14.152Z,4.15
2023-11-19T19:13:43.311Z,3.38
2023-11-19T19:16:13.059Z,3.65
2023-11-19T19:18:42.605Z,3.22
2023-11-19T19:21:12.266Z,3.42
2023-11-19T19:23:40.936Z,4.25
2023-11-19T19:26:09.611Z,3.65
2023-11-19T19:28:40.163Z,3.35
2023-11-19T19:31:09.275Z,3.72
2023-11-19T19:33:38.569Z,3.80
2023-11-19T19:36:10.582Z,3.80
2023-11-19T19:38:39.585Z,3.45
2023-11-19T19:41:08.966Z,4.10
2023-11-19T19:43:40.762Z,3.60
2023-11-19T19:46:10.303Z,3.53
2023-11-19T19:48:39.226Z,4.13
2023-11-19T19:51:08.736Z,4.28
2023-11-19T19:53:38.627Z,4.35
2023-11-19T19:56:07.945Z,3.92
2023-11-19T19:58:39.614Z,3.42
2023-11-19T20:01:11.718Z,3.50
2023-11-19T20:03:44.378Z,3.78
2023-11-19T20:06:13.388Z,3.70
2023-11-19T20:08:42.618Z,3.78
2023-11-19T20:11:11.937Z,3.60
2023-11-19T20:13:40.821Z,3.83
2023-11-19T20:16:11.986Z,3.90
2023-11-19T20:18:41.082Z,4.05
2023-11-19T20:21:10.606Z,3.55
2023-11-19T20:23:39.625Z,3.80
2023-11-19T20:26:08.651Z,3.88
2023-11-19T20:28:37.315Z,3.58
2023-11-19T20:31:06.373Z,3.45
2023-11-19T20:33:37.131Z,3.45
2023-11-19T20:36:06.838Z,3.55
2023-11-19T20:38:37.497Z,3.80
2023-11-19T20:41:06.544Z,3.42
2023-11-19T20:43:35.783Z,3.55
2023-11-19T20:46:05.305Z,4.07
2023-11-19T20:48:35.668Z,3.63
2023-11-19T20:51:06.248Z,3.70
2023-11-19T20:53:35.424Z,3.70
2023-11-19T20:56:04.288Z,3.50
2023-11-19T20:58:35.827Z,4.30
2023-11-19T21:01:09.100Z,4.40
2023-11-19T21:03:39.289Z,4.47
2023-11-19T21:06:09.986Z,3.83
2023-11-19T21:08:40.246Z,4.25
2023-11-19T21:11:11.393Z,4.05
2023-11-19T21:13:40.490Z,3.97
2023-11-19T21:16:10.244Z,4.43
2023-11-19T21:18:40.098Z,4.28
2023-11-19T21:21:10.374Z,4.38
2023-11-19T21:23:40.214Z,4.07
2023-11-19T21:26:09.479Z,4.05
2023-11-19T21:28:38.072Z,4.10
2023-11-19T21:31:06.911Z,5.05
2023-11-19T21:33:36.258Z,5.57
2023-11-19T21:36:06.639Z,5.03
2023-11-19T21:38:36.692Z,5.07
2023-11-19T21:41:05.869Z,4.72
2023-11-19T21:43:35.304Z,4.30
2023-11-19T21:46:04.799Z,4.57
2023-11-19T21:48:33.689Z,5.35
2023-11-19T21:51:05.637Z,4.68
2023-11-19T21:53:35.734Z,5.18
2023-11-19T21:58:37.238Z,4.55
2023-11-19T22:01:06.551Z,4.53
2023-11-19T22:03:35.394Z,4.38
2023-11-19T22:06:04.076Z,4.85
2023-11-19T22:08:33.162Z,4.43
2023-11-19T22:11:04.026Z,4.95
2023-11-19T22:13:33.114Z,4.65
2023-11-19T22:16:01.945Z,4.55
2023-11-19T22:18:30.655Z,4.80
2023-11-19T22:20:59.496Z,4.53
2023-11-19T22:23:28.506Z,5.40
2023-11-19T22:25:57.409Z,5.05
2023-11-19T22:28:27.712Z,4.90
2023-11-19T22:30:56.953Z,5.03
2023-11-19T22:33:26.219Z,4.57
2023-11-19T22:35:54.827Z,4.53
2023-11-19T22:38:23.465Z,4.55
2023-11-19T22:40:52.126Z,4.20
2023-11-19T22:43:20.863Z,4.40
2023-11-19T22:45:51.438Z,4.30
2023-11-19T22:48:20.352Z,5.00
2023-11-19T22:50:48.980Z,4.95
2023-11-19T22:53:18.258Z,4.95
2023-11-19T22:55:46.884Z,4.18
2023-11-19T22:58:15.683Z,4.80
2023-11-19T23:00:44.415Z,4.80
2023-11-19T23:03:15.523Z,5.00
2023-11-19T23:05:44.520Z,4.57
2023-11-19T23:08:13.496Z,4.75
2023-11-19T23:10:42.471Z,4.38
2023-11-19T23:13:11.205Z,4.68
2023-11-19T23:15:39.992Z,4.30
2023-11-19T23:18:09.560Z,4.50
2023-11-19T23:20:41.688Z,4.88
2023-11-19T23:23:10.495Z,4.38
2023-11-19T23:25:40.005Z,4.70
2023-11-19T23:28:08.852Z,4.82
2023-11-19T23:30:37.642Z,4.70
2023-11-19T23:33:07.123Z,4.43
2023-11-19T23:35:36.503Z,4.35
2023-11-19T23:38:06.500Z,4.47
2023-11-19T23:40:35.187Z,4.20
2023-11-19T23:43:04.862Z,4.45
2023-11-19T23:45:34.022Z,4.60
2023-11-19T23:48:03.070Z,4.35
2023-11-19T23:50:31.730Z,4.65
2023-11-19T23:53:00.362Z,4.57
2023-11-19T23:55:30.344Z,4.35
2023-11-19T23:57:59.273Z,4.40
